Time;durP1;ratioP1;P1;durP2;ratioP2;P2;SDS_P1;SDS_P2;PMS_P1;PMS_P2;Temp;Humidity;BMP_temperature;BMP_pressure;BME280_temperature;BME280_humidity;BME280_pressure;Samples;Min_cycle;Max_cycle;Signal;HPM_P1;HPM_P2
2022/03/18 00:00:40;;;;;;;27.70;15.82;;;;;;;3.75;90.49;103179.47;4992195;28;20114;-80
2022/03/18 00:06:45;;;;;;;32.95;17.98;;;;;;;3.70;90.39;103184.78;4971171;28;19922;-82
2022/03/18 00:09:50;;;;;;;25.92;16.52;;;;;;;3.51;91.02;103175.91;4977128;28;20205;-83
2022/03/18 00:12:53;;;;;;;26.10;15.40;;;;;;;3.62;90.67;103192.81;4987636;28;20057;-82
2022/03/18 00:15:27;;;;;;;28.30;17.83;;;;;;;3.49;91.44;103182.88;4983359;28;20057;-82
2022/03/18 00:18:12;;;;;;;24.15;15.75;;;;;;;3.41;91.52;103180.53;4994233;28;20038;-80
2022/03/18 00:20:57;;;;;;;22.00;15.90;;;;;;;3.38;91.30;103180.63;4989438;28;20062;-82
2022/03/18 00:23:44;;;;;;;;;;;;;;;;;;;;;
2022/03/18 00:26:14;;;;;;;24.95;14.57;;;;;;;3.26;91.12;103191.38;4968100;28;20685;-80
2022/03/18 00:31:36;;;;;;;29.23;15.10;;;;;;;3.17;92.54;103174.38;4992883;28;20054;-79
2022/03/18 00:34:03;;;;;;;24.70;15.23;;;;;;;3.18;92.38;103172.63;4991422;28;20081;-79
2022/03/18 00:36:30;;;;;;;24.40;14.50;;;;;;;3.21;91.86;103183.75;4986538;28;20483;-80
2022/03/18 00:38:56;;;;;;;23.25;14.70;;;;;;;3.21;92.50;103188.06;4985933;28;20154;-82
2022/03/18 00:41:24;;;;;;;25.92;16.40;;;;;;;3.13;92.19;103190.03;4994018;28;20547;-80
2022/03/18 00:43:53;;;;;;;22.40;14.68;;;;;;;3.15;92.27;103194.25;4977267;28;20046;-80
2022/03/18 00:46:23;;;;;;;26.08;15.00;;;;;;;3.13;92.41;103190.03;4984644;28;20081;-80
2022/03/18 00:54:17;;;;;;;38.53;17.23;;;;;;;3.00;93.30;103189.53;4984660;28;20093;-81
2022/03/18 00:56:44;;;;;;;31.23;15.07;;;;;;;3.08;93.19;103181.56;4999167;28;20082;-82
2022/03/18 00:59:12;;;;;;;31.30;15.40;;;;;;;3.09;92.62;103186.69;4985449;28;20149;-81
2022/03/18 01:01:39;;;;;;;38.13;17.27;;;;;;;2.96;93.01;103185.34;4998062;28;20050;-81
2022/03/18 01:04:06;;;;;;;39.17;16.33;;;;;;;2.97;92.95;103187.88;4999510;28;20113;-81
2022/03/18 01:06:32;;;;;;;29.88;15.68;;;;;;;2.99;92.70;103191.28;4998135;28;20533;-83
2022/03/18 01:08:59;;;;;;;28.20;15.95;;;;;;;2.89;92.59;103189.84;4999432;28;20078;-83
2022/03/18 01:11:26;;;;;;;30.05;15.80;;;;;;;3.00;92.16;103198.16;4983971;28;20081;-83
2022/03/18 01:13:52;;;;;;;30.08;15.98;;;;;;;3.05;91.57;103197.16;4985172;28;20097;-83
2022/03/18 01:16:20;;;;;;;24.88;15.63;;;;;;;2.99;92.02;103199.03;4981898;28;20103;-83
2022/03/18 01:18:50;;;;;;;26.35;16.42;;;;;;;3.04;91.45;103195.47;4981216;28;20089;-83
2022/03/18 01:21:17;;;;;;;22.02;15.63;;;;;;;3.16;91.22;103200.28;4996221;28;20077;-84
2022/03/18 01:23:43;;;;;;;26.70;16.02;;;;;;;3.10;91.52;103201.31;4998142;28;20138;-84
2022/03/18 01:26:13;;;;;;;24.30;16.13;;;;;;;3.09;91.25;103206.53;4997701;28;20428;-82
2022/03/18 01:28:40;;;;;;;26.77;16.77;;;;;;;3.08;91.50;103202.25;5004071;28;20058;-84
2022/03/18 01:31:06;;;;;;;26.63;16.48;;;;;;;3.00;91.69;103205.06;4983170;28;20130;-82
2022/03/18 01:33:36;;;;;;;29.38;17.33;;;;;;;3.12;91.13;103203.84;4982034;28;20114;-82
2022/03/18 01:36:03;;;;;;;32.15;17.90;;;;;;;3.06;91.20;103211.78;4984971;28;20049;-84
2022/03/18 01:38:30;;;;;;;28.85;16.52;;;;;;;3.00;91.91;103213.66;5009730;28;20162;-84
2022/03/18 01:40:57;;;;;;;28.52;17.15;;;;;;;3.08;91.26;103208.28;5000187;28;20066;-82
2022/03/18 01:43:24;;;;;;;26.08;16.77;;;;;;;3.00;91.43;103220.56;5002154;28;20052;-83
2022/03/18 01:45:51;;;;;;;27.52;17.73;;;;;;;2.94;92.09;103220.75;5000250;28;20039;-83
2022/03/18 01:48:18;;;;;;;28.38;18.60;;;;;;;2.88;91.69;103221.75;4991801;28;20054;-83
2022/03/18 01:50:47;;;;;;;28.27;16.88;;;;;;;2.86;92.06;103223.53;4992923;28;20526;-83
2022/03/18 01:53:13;;;;;;;27.15;17.27;;;;;;;2.86;92.56;103226.13;4985784;28;20097;-83
2022/03/18 01:55:40;;;;;;;24.92;17.40;;;;;;;2.78;92.68;103228.13;4984506;28;20115;-82
2022/03/18 01:58:06;;;;;;;33.05;18.50;;;;;;;2.80;92.91;103231.50;4986886;28;20065;-82
2022/03/18 02:00:33;;;;;;;30.52;18.10;;;;;;;2.80;92.89;103228.91;4989849;28;20082;-82
2022/03/18 02:03:00;;;;;;;30.73;18.98;;;;;;;2.74;92.92;103236.00;4991915;28;20532;-84
2022/03/18 02:05:27;;;;;;;33.30;17.65;;;;;;;2.71;93.62;103239.50;4994314;28;20090;-83
2022/03/18 02:07:55;;;;;;;34.45;17.13;;;;;;;2.71;93.58;103244.69;4988868;28;20145;-83
2022/03/18 02:10:22;;;;;;;25.67;16.85;;;;;;;2.73;93.44;103242.91;4988962;28;20130;-84
2022/03/18 02:12:51;;;;;;;28.25;17.38;;;;;;;2.68;93.61;103242.16;4985593;28;20062;-83
2022/03/18 02:15:18;;;;;;;38.80;17.73;;;;;;;2.64;93.63;103248.31;4986001;28;20054;-84
2022/03/18 02:17:44;;;;;;;30.50;17.08;;;;;;;2.62;93.66;103256.09;4986603;28;20141;-83
2022/03/18 02:20:11;;;;;;;30.92;18.38;;;;;;;2.59;93.61;103260.50;4985372;28;20110;-82
2022/03/18 02:22:43;;;;;;;24.85;17.63;;;;;;;2.52;93.95;103246.03;4988748;28;20109;-83
2022/03/18 02:25:28;;;;;;;28.90;17.58;;;;;;;2.55;94.01;103256.31;4992119;28;20051;-85
2022/03/18 02:27:58;;;;;;;30.60;17.83;;;;;;;2.58;93.94;103261.41;4992853;28;20478;-84
2022/03/18 02:30:26;;;;;;;29.92;17.88;;;;;;;2.59;93.46;103250.16;4990290;28;20473;-84
2022/03/18 02:32:53;;;;;;;26.85;17.35;;;;;;;2.47;93.59;103261.66;4990772;28;20681;-84
2022/03/18 02:35:19;;;;;;;29.55;17.38;;;;;;;2.45;93.78;103260.88;4991363;28;20142;-84
2022/03/18 02:37:47;;;;;;;32.22;17.90;;;;;;;2.43;94.23;103264.38;4987294;28;20078;-81
2022/03/18 02:40:15;;;;;;;27.33;17.30;;;;;;;2.43;94.33;103266.94;4987517;28;20141;-82
2022/03/18 02:42:42;;;;;;;24.55;17.45;;;;;;;2.44;94.24;103263.47;4988066;28;20359;-81
2022/03/18 02:45:10;;;;;;;30.25;17.67;;;;;;;2.48;94.37;103276.28;4981772;28;20458;-82
2022/03/18 02:47:37;;;;;;;33.08;17.90;;;;;;;2.45;94.26;103272.94;4983032;28;20074;-82
2022/03/18 02:50:08;;;;;;;29.20;17.73;;;;;;;2.43;94.32;103285.03;4981816;28;20070;-82
2022/03/18 02:52:35;;;;;;;27.27;17.15;;;;;;;2.41;94.84;103281.66;4982174;28;20051;-82
2022/03/18 02:55:03;;;;;;;32.33;17.30;;;;;;;2.41;94.75;103279.91;4982138;28;20498;-82
2022/03/18 02:57:32;;;;;;;31.20;17.25;;;;;;;2.40;95.08;103290.28;4981486;28;20086;-81
2022/03/18 02:59:59;;;;;;;29.58;17.20;;;;;;;2.52;94.24;103287.41;4981920;28;20065;-82
2022/03/18 03:02:26;;;;;;;30.58;18.23;;;;;;;2.59;94.79;103291.53;4982205;28;20061;-81
2022/03/18 03:10:32;;;;;;;29.52;18.05;;;;;;;2.35;94.96;103310.25;4976833;28;20054;-83
2022/03/18 03:13:01;;;;;;;32.75;17.08;;;;;;;2.28;94.79;103305.22;4982108;28;20234;-82
2022/03/18 03:15:30;;;;;;;31.02;17.67;;;;;;;2.27;95.30;103313.03;4981735;28;20090;-82
2022/03/18 03:18:02;;;;;;;29.95;18.63;;;;;;;2.50;95.42;103312.44;4981044;28;20126;-83
2022/03/18 03:20:29;;;;;;;31.97;18.73;;;;;;;2.51;95.94;103319.31;4981452;28;20115;-82
2022/03/18 03:22:56;;;;;;;29.88;18.10;;;;;;;2.54;95.89;103319.22;4982243;28;20051;-81
2022/03/18 03:25:22;;;;;;;30.70;18.25;;;;;;;2.56;95.43;103320.88;4985521;28;20055;-83
2022/03/18 03:37:21;;;;;;;29.15;16.90;;;;;;;2.28;95.07;103310.41;4956816;28;20228;-81
2022/03/18 03:39:48;;;;;;;30.52;17.15;;;;;;;2.25;95.65;103327.72;4999338;28;20142;-82
2022/03/18 03:42:28;;;;;;;25.73;17.77;;;;;;;2.36;95.84;103336.06;5000194;28;20338;-81
2022/03/18 03:44:55;;;;;;;26.88;16.65;;;;;;;2.47;95.22;103323.69;5033487;23;20042;-79
2022/03/18 03:47:21;;;;;;;29.95;16.58;;;;;;;2.40;96.01;103331.63;5003780;28;20054;-79
2022/03/18 03:49:48;;;;;;;28.10;17.70;;;;;;;2.37;96.05;103336.88;4997122;28;20050;-78
2022/03/18 03:52:17;;;;;;;26.63;17.45;;;;;;;2.35;95.90;103333.50;5000590;28;20113;-79
2022/03/18 03:54:44;;;;;;;29.48;17.05;;;;;;;2.23;95.82;103325.16;5000517;28;20486;-79
2022/03/18 03:57:10;;;;;;;29.17;16.75;;;;;;;2.16;95.97;103333.94;4999562;28;20078;-79
2022/03/18 03:59:40;;;;;;;26.17;16.38;;;;;;;2.17;96.15;103329.63;4999522;28;20264;-80
2022/03/18 04:02:08;;;;;;;25.88;17.42;;;;;;;2.19;96.02;103327.84;5000513;28;20105;-80
2022/03/18 04:04:34;;;;;;;27.65;16.45;;;;;;;2.11;95.91;103338.34;5000069;28;20054;-80
2022/03/18 04:07:01;;;;;;;25.85;15.70;;;;;;;2.02;96.42;103332.56;4999779;28;20105;-80
2022/03/18 04:09:29;;;;;;;33.00;16.48;;;;;;;1.92;96.18;103344.81;4999738;28;20143;-80
2022/03/18 04:11:56;;;;;;;26.05;16.25;;;;;;;1.88;96.27;103344.06;5000360;28;20082;-80
2022/03/18 04:14:22;;;;;;;26.73;16.67;;;;;;;1.80;96.54;103351.13;5000311;28;20572;-80
2022/03/18 04:16:49;;;;;;;27.33;15.90;;;;;;;1.83;96.45;103351.06;4999826;28;20046;-80
2022/03/18 04:19:16;;;;;;;23.08;16.08;;;;;;;1.79;96.82;103356.31;4999698;28;20468;-80
2022/03/18 04:21:43;;;;;;;28.27;16.25;;;;;;;1.72;96.83;103367.66;4999666;28;20077;-80
2022/03/18 04:24:10;;;;;;;28.00;16.67;;;;;;;1.63;96.80;103366.97;4998878;28;20109;-80
2022/03/18 04:26:38;;;;;;;33.40;16.70;;;;;;;1.60;96.89;103368.75;4998737;28;20042;-80
2022/03/18 04:29:05;;;;;;;26.27;16.15;;;;;;;1.54;97.06;103374.03;4999846;28;20077;-80
2022/03/18 04:31:31;;;;;;;27.58;15.73;;;;;;;1.55;97.12;103371.41;4999532;28;20056;-81
2022/03/18 04:33:58;;;;;;;26.42;16.15;;;;;;;1.51;97.52;103379.25;4999396;28;20078;-81
2022/03/18 04:36:25;;;;;;;31.48;16.55;;;;;;;1.49;97.22;103381.88;4999163;28;20533;-81
2022/03/18 04:38:52;;;;;;;27.67;16.42;;;;;;;1.41;97.32;103380.34;4998280;28;20070;-81
2022/03/18 04:41:19;;;;;;;29.17;16.23;;;;;;;1.43;97.49;103376.81;4999405;28;20118;-81
2022/03/18 04:43:47;;;;;;;30.85;16.92;;;;;;;1.41;97.67;103373.44;4998940;28;20089;-81
2022/03/18 04:46:14;;;;;;;28.20;17.10;;;;;;;1.30;97.62;103376.22;4998901;28;20097;-81
2022/03/18 04:48:40;;;;;;;26.70;16.75;;;;;;;1.30;97.68;103380.53;4998361;28;20050;-80
2022/03/18 04:51:07;;;;;;;26.42;15.90;;;;;;;1.22;97.98;103372.09;4999429;28;20078;-81
2022/03/18 04:53:36;;;;;;;27.20;16.73;;;;;;;1.21;97.45;103380.72;4998666;28;20081;-81
2022/03/18 04:56:02;;;;;;;33.88;16.10;;;;;;;1.18;97.84;103380.75;4998945;28;20053;-81
2022/03/18 04:58:29;;;;;;;26.50;15.98;;;;;;;1.06;97.98;103375.81;4998071;28;20050;-81
2022/03/18 05:00:57;;;;;;;24.38;14.95;;;;;;;1.06;97.91;103378.41;4998951;28;20114;-81
2022/03/18 05:03:24;;;;;;;26.58;16.05;;;;;;;1.07;97.98;103385.25;4998283;28;20516;-80
2022/03/18 05:05:51;;;;;;;24.05;15.20;;;;;;;1.01;97.86;103388.78;4999354;28;20054;-81
2022/03/18 05:08:17;;;;;;;29.08;15.27;;;;;;;0.96;97.80;103390.59;4998470;28;20091;-79
2022/03/18 05:10:44;;;;;;;21.90;15.48;;;;;;;0.92;98.77;103389.84;4999538;28;20130;-79
2022/03/18 05:13:11;;;;;;;28.23;15.80;;;;;;;0.89;98.47;103397.63;5000689;28;20161;-79
2022/03/18 05:15:38;;;;;;;28.13;14.98;;;;;;;0.87;98.54;103403.69;4998114;28;20141;-79
2022/03/18 05:18:06;;;;;;;23.40;14.55;;;;;;;0.91;98.40;103403.59;5000030;28;20050;-79
2022/03/18 05:20:34;;;;;;;29.33;14.98;;;;;;;0.82;97.93;103408.91;5002096;28;20054;-80
2022/03/18 05:23:01;;;;;;;24.42;13.65;;;;;;;0.75;98.14;103425.34;5002698;28;20046;-80
2022/03/18 05:25:28;;;;;;;28.73;15.32;;;;;;;0.75;98.13;103417.63;5000815;28;20058;-80
2022/03/18 05:27:55;;;;;;;24.80;13.88;;;;;;;0.76;98.70;103418.47;5001903;28;20054;-79
2022/03/18 05:30:22;;;;;;;30.73;14.18;;;;;;;0.82;98.53;103426.94;5002717;28;20054;-80
2022/03/18 05:32:48;;;;;;;25.65;14.27;;;;;;;0.80;98.31;103431.28;5002426;28;20137;-80
2022/03/18 05:35:18;;;;;;;49.70;18.90;;;;;;;0.78;98.64;103432.19;5002985;28;20046;-79
2022/03/18 05:37:45;;;;;;;122.90;33.20;;;;;;;0.78;98.52;103435.59;5002188;28;20420;-80
2022/03/18 05:40:14;;;;;;;165.40;40.90;;;;;;;0.73;98.78;103445.13;5001670;28;20054;-80
2022/03/18 05:42:40;;;;;;;142.15;38.58;;;;;;;0.74;98.57;103449.41;5002367;28;20058;-80
2022/03/18 05:45:08;;;;;;;207.27;50.58;;;;;;;0.71;98.40;103452.03;5000320;28;20080;-80
2022/03/18 05:47:34;;;;;;;201.98;52.67;;;;;;;0.74;98.58;103456.31;4999554;28;20133;-80
2022/03/18 05:50:05;;;;;;;169.57;41.13;;;;;;;0.72;98.12;103455.47;4998524;28;20549;-79
2022/03/18 05:52:33;;;;;;;122.53;34.45;;;;;;;0.67;98.51;103460.69;5002116;28;20105;-80
2022/03/18 05:55:00;;;;;;;123.57;33.72;;;;;;;0.71;98.11;103458.91;5000514;28;20394;-83
2022/03/18 05:57:26;;;;;;;116.53;35.28;;;;;;;0.69;98.17;103456.38;4996376;28;20509;-78
2022/03/18 05:59:53;;;;;;;89.30;27.80;;;;;;;0.68;98.47;103464.97;4994072;28;20050;-78
2022/03/18 06:02:20;;;;;;;97.15;26.98;;;;;;;0.70;98.57;103480.41;4993970;28;20074;-78
2022/03/18 06:04:46;;;;;;;79.65;23.60;;;;;;;0.74;98.50;103479.50;4993846;28;20480;-78
2022/03/18 06:07:13;;;;;;;59.03;22.73;;;;;;;0.74;98.27;103471.75;4997804;28;20070;-80
2022/03/18 06:12:26;;;;;;;45.53;17.38;;;;;;;0.80;98.41;103482.84;4997895;28;20061;-80
2022/03/18 06:14:52;;;;;;;39.40;17.88;;;;;;;0.85;98.17;103496.50;4999751;28;20125;-80
2022/03/18 06:17:19;;;;;;;34.30;15.77;;;;;;;0.95;98.30;103503.19;5000211;28;20049;-81
2022/03/18 06:19:46;;;;;;;32.72;16.55;;;;;;;1.09;97.95;103509.88;5004303;28;20057;-80
2022/03/18 06:22:12;;;;;;;29.52;14.13;;;;;;;1.25;97.31;103501.88;5005208;28;20057;-84
2022/03/18 06:24:40;;;;;;;30.85;17.30;;;;;;;1.36;96.95;103504.25;5003128;28;20137;-80
2022/03/18 06:27:08;;;;;;;42.22;21.85;;;;;;;1.42;97.48;103517.03;5001625;28;20086;-80
2022/03/18 06:29:35;;;;;;;35.97;19.30;;;;;;;1.79;98.11;103516.38;5002723;28;20065;-80
2022/03/18 06:32:02;;;;;;;35.95;19.58;;;;;;;2.19;97.79;103504.38;5002727;28;20050;-80
2022/03/18 06:34:29;;;;;;;37.47;20.50;;;;;;;2.90;96.54;103506.22;5003583;28;20069;-80
2022/03/18 06:37:00;;;;;;;32.60;16.45;;;;;;;3.57;92.98;103510.56;5001526;28;20061;-80
2022/03/18 06:39:26;;;;;;;35.17;18.40;;;;;;;4.24;87.78;103505.25;5001184;28;20149;-80
2022/03/18 06:41:54;;;;;;;34.25;18.15;;;;;;;5.14;82.10;103510.19;5001659;28;20129;-81
2022/03/18 06:44:22;;;;;;;19.38;11.43;;;;;;;5.73;77.99;103525.44;5009705;28;20060;-81
2022/03/18 06:46:48;;;;;;;20.20;10.82;;;;;;;5.96;76.54;103536.78;4999975;28;20139;-81
2022/03/18 06:49:15;;;;;;;23.50;10.77;;;;;;;6.25;75.48;103529.63;4995831;28;20137;-80
2022/03/18 06:51:42;;;;;;;16.85;9.93;;;;;;;7.28;71.21;103529.88;5004966;28;20088;-80
2022/03/18 06:54:09;;;;;;;16.63;10.02;;;;;;;7.86;69.99;103537.81;5018006;28;20124;-81
2022/03/18 06:56:52;;;;;;;19.15;9.68;;;;;;;8.01;69.20;103542.34;5014423;28;20072;-82
2022/03/18 06:59:22;;;;;;;14.70;10.00;;;;;;;8.06;68.56;103540.34;5007339;28;20081;-80
2022/03/18 07:01:54;;;;;;;13.82;8.68;;;;;;;8.36;67.79;103538.16;5010247;28;20082;-80
2022/03/18 07:04:22;;;;;;;19.33;9.80;;;;;;;8.71;66.78;103533.03;5007933;28;20119;-80
2022/03/18 07:06:49;;;;;;;18.38;8.52;;;;;;;8.94;65.49;103532.78;5008416;28;20050;-80
2022/03/18 07:09:20;;;;;;;14.52;8.35;;;;;;;9.30;63.83;103549.25;5013904;28;20141;-80
2022/03/18 07:11:46;;;;;;;14.60;8.43;;;;;;;9.34;63.42;103555.16;5012649;28;20117;-80
2022/03/18 07:14:13;;;;;;;18.17;8.57;;;;;;;9.18;63.22;103549.00;5013771;28;20125;-80
2022/03/18 07:19:28;;;;;;;19.13;9.25;;;;;;;9.62;61.64;103544.16;5009109;28;20061;-80
2022/03/18 07:21:55;;;;;;;19.45;8.88;;;;;;;9.65;62.67;103557.91;5011723;28;20068;-81
2022/03/18 07:24:24;;;;;;;16.33;9.00;;;;;;;9.57;62.79;103562.69;5003274;28;20137;-83
2022/03/18 07:26:54;;;;;;;17.08;9.15;;;;;;;9.70;62.29;103557.69;5002123;28;20037;-83
2022/03/18 07:29:21;;;;;;;14.10;9.43;;;;;;;10.45;60.36;103557.16;5007579;28;20082;-84
2022/03/18 07:31:47;;;;;;;16.85;9.48;;;;;;;10.54;59.98;103556.66;5006528;28;20112;-85
2022/03/18 07:34:14;;;;;;;15.23;9.05;;;;;;;10.14;60.25;103557.09;5011931;28;20042;-84
2022/03/18 07:36:42;;;;;;;15.80;9.02;;;;;;;10.80;58.12;103554.38;5012869;28;20093;-84
2022/03/18 07:39:08;;;;;;;15.93;9.00;;;;;;;11.12;58.74;103547.28;5010392;28;20112;-80
2022/03/18 07:41:35;;;;;;;18.17;9.05;;;;;;;11.08;57.05;103556.25;5014186;28;20125;-81
2022/03/18 07:44:02;;;;;;;21.50;10.05;;;;;;;9.97;60.46;103550.16;5011769;28;20607;-81
2022/03/18 07:46:31;;;;;;;14.95;9.05;;;;;;;10.05;61.23;103554.97;5018539;28;20080;-81
2022/03/18 07:48:58;;;;;;;19.45;9.02;;;;;;;10.80;59.13;103551.75;5019373;28;20113;-81
2022/03/18 07:51:27;;;;;;;12.40;8.45;;;;;;;10.88;57.54;103550.38;5019528;28;20129;-81
2022/03/18 07:53:56;;;;;;;14.32;8.55;;;;;;;11.87;55.78;103547.16;5019718;28;20137;-80
2022/03/18 07:56:23;;;;;;;14.38;8.23;;;;;;;11.48;54.36;103539.03;5018291;28;20057;-81
2022/03/18 07:58:49;;;;;;;14.77;8.70;;;;;;;11.37;55.70;103537.03;5018361;28;20486;-80
2022/03/18 08:01:18;;;;;;;13.73;8.30;;;;;;;10.73;57.72;103532.91;5021394;28;20105;-79
2022/03/18 08:03:44;;;;;;;14.30;8.38;;;;;;;11.46;56.04;103531.25;5017633;28;20133;-80
2022/03/18 08:06:12;;;;;;;13.35;9.00;;;;;;;11.43;56.42;103541.09;5018097;28;20465;-81
2022/03/18 08:08:39;;;;;;;18.20;8.57;;;;;;;11.50;55.83;103538.00;5017560;28;20679;-81
2022/03/18 08:11:07;;;;;;;11.40;7.43;;;;;;;12.03;53.33;103547.06;5018878;28;20313;-81
2022/03/18 08:13:34;;;;;;;16.25;9.68;;;;;;;11.88;53.64;103555.88;5018473;28;20077;-81
2022/03/18 08:16:01;;;;;;;14.48;8.07;;;;;;;11.75;54.08;103554.91;5017761;28;20453;-80
2022/03/18 08:18:27;;;;;;;17.52;7.93;;;;;;;12.27;52.53;103556.06;5017599;28;20125;-80
2022/03/18 08:20:54;;;;;;;15.77;8.45;;;;;;;11.94;52.37;103552.88;5018284;28;20200;-81
2022/03/18 08:23:23;;;;;;;13.23;7.78;;;;;;;11.58;53.56;103546.28;5017936;28;20085;-81
2022/03/18 08:25:49;;;;;;;12.43;7.90;;;;;;;11.69;52.71;103557.91;5018083;28;20504;-81
2022/03/18 08:28:17;;;;;;;15.23;7.85;;;;;;;12.33;51.88;103556.59;5017650;28;20049;-81
2022/03/18 08:30:47;;;;;;;15.18;7.65;;;;;;;11.18;52.80;103539.91;5018069;28;20430;-81
2022/03/18 08:33:13;;;;;;;20.38;7.68;;;;;;;11.19;53.72;103535.53;5018315;28;20085;-80
2022/03/18 08:35:42;;;;;;;14.77;6.95;;;;;;;10.60;54.48;103545.00;5017152;28;20060;-80
2022/03/18 08:38:09;;;;;;;15.38;7.88;;;;;;;11.29;55.06;103550.63;5017007;28;20512;-80
2022/03/18 08:40:39;;;;;;;14.23;8.30;;;;;;;11.79;54.97;103559.91;5017114;28;20060;-81
2022/03/18 08:43:09;;;;;;;15.55;7.85;;;;;;;11.80;53.86;103555.50;5016178;28;20133;-81
2022/03/18 08:45:37;;;;;;;13.18;7.90;;;;;;;11.16;54.14;103565.38;5016580;28;20484;-81
2022/03/18 08:48:07;;;;;;;14.45;7.97;;;;;;;11.24;54.07;103567.56;5016383;28;20084;-81
2022/03/18 08:50:33;;;;;;;12.10;6.20;;;;;;;11.11;51.81;103572.66;5016719;28;20054;-80
2022/03/18 08:53:00;;;;;;;13.07;7.53;;;;;;;11.72;50.31;103581.34;5016636;28;20174;-80
2022/03/18 08:55:27;;;;;;;13.02;6.50;;;;;;;10.73;50.63;103582.69;5016264;28;20087;-80
2022/03/18 08:57:56;;;;;;;12.85;7.28;;;;;;;10.82;51.23;103586.56;5015844;28;20042;-79
2022/03/18 09:00:23;;;;;;;12.63;7.03;;;;;;;11.37;49.97;103586.84;5016600;28;20446;-80
2022/03/18 09:02:52;;;;;;;14.45;6.43;;;;;;;10.75;50.78;103588.69;5015849;28;20397;-80
2022/03/18 09:05:19;;;;;;;13.35;6.35;;;;;;;11.04;52.15;103580.94;5015905;28;20081;-80
2022/03/18 09:07:48;;;;;;;14.70;6.68;;;;;;;11.18;51.28;103588.88;5016580;28;20057;-81
2022/03/18 09:10:14;;;;;;;12.80;6.63;;;;;;;10.96;51.72;103584.00;5016751;28;20080;-81
2022/03/18 09:12:47;;;;;;;13.57;6.32;;;;;;;11.07;50.44;103592.09;5017046;28;20120;-81
2022/03/18 09:15:16;;;;;;;12.70;6.53;;;;;;;11.60;49.26;103591.59;5017153;28;20476;-81
2022/03/18 09:17:43;;;;;;;10.50;6.35;;;;;;;11.33;49.31;103598.47;5015693;28;20134;-81
2022/03/18 09:20:11;;;;;;;15.20;6.72;;;;;;;10.96;51.71;103610.19;5016295;28;20116;-82
2022/03/18 09:22:38;;;;;;;11.65;6.05;;;;;;;10.98;50.03;103608.34;5015961;28;20088;-80
2022/03/18 09:25:05;;;;;;;12.57;7.28;;;;;;;10.42;52.81;103614.91;5015451;28;20084;-80
2022/03/18 09:27:32;;;;;;;14.35;6.43;;;;;;;10.27;54.17;103619.22;5015495;28;20141;-81
2022/03/18 09:30:00;;;;;;;15.18;6.82;;;;;;;10.34;54.56;103629.38;5014818;28;20436;-81
2022/03/18 09:32:29;;;;;;;14.30;7.47;;;;;;;10.71;54.57;103626.44;5015904;28;20056;-81
2022/03/18 09:34:56;;;;;;;13.40;6.50;;;;;;;10.29;56.06;103635.69;5015510;28;20157;-81
2022/03/18 09:37:24;;;;;;;10.48;6.70;;;;;;;10.43;55.37;103634.09;5015707;28;20052;-80
2022/03/18 09:39:54;;;;;;;13.32;6.45;;;;;;;10.56;55.27;103629.88;5015104;28;20053;-81
2022/03/18 09:42:20;;;;;;;10.88;6.30;;;;;;;10.69;56.20;103644.00;5014661;28;20056;-81
2022/03/18 09:44:48;;;;;;;13.32;7.53;;;;;;;10.58;55.67;103621.03;5053279;23;20141;-84
2022/03/18 09:47:15;;;;;;;9.65;5.53;;;;;;;10.46;51.82;103621.69;5013623;28;20052;-82
2022/03/18 09:49:44;;;;;;;9.15;5.43;;;;;;;10.06;52.43;103641.22;5013499;28;20068;-87
2022/03/18 09:52:12;;;;;;;10.75;5.35;;;;;;;10.08;51.62;103636.75;5015262;28;20655;-83
2022/03/18 09:54:40;;;;;;;10.48;4.68;;;;;;;10.17;50.13;103640.69;5019700;28;20497;-83
2022/03/18 09:57:06;;;;;;;6.30;4.45;;;;;;;10.28;50.06;103639.22;5019826;28;20092;-81
2022/03/18 09:59:33;;;;;;;8.73;4.57;;;;;;;10.79;49.68;103639.97;5020171;28;20133;-82
2022/03/18 10:02:26;;;;;;;12.35;5.30;;;;;;;10.32;49.18;103652.16;5019587;28;20108;-83
2022/03/18 10:04:54;;;;;;;9.48;5.57;;;;;;;10.26;49.99;103637.63;5019746;28;20523;-83
2022/03/18 10:07:21;;;;;;;10.55;6.30;;;;;;;10.42;54.18;103650.72;5018728;28;20050;-82
2022/03/18 10:10:00;;;;;;;15.82;7.32;;;;;;;10.70;55.53;103655.34;5018206;28;20087;-81
2022/03/18 10:12:33;;;;;;;13.20;7.13;;;;;;;11.00;55.61;103632.69;5018357;28;20135;-81
2022/03/18 10:15:09;;;;;;;10.07;6.47;;;;;;;10.82;52.76;103624.09;5018193;28;20045;-82
2022/03/18 10:17:40;;;;;;;12.23;6.10;;;;;;;11.24;53.15;103631.31;5020870;28;20050;-83
2022/03/18 10:20:08;;;;;;;14.82;6.45;;;;;;;11.14;51.85;103639.78;5019503;28;20049;-82
2022/03/18 10:22:37;;;;;;;12.65;5.85;;;;;;;11.24;50.19;103625.22;5019098;28;20077;-83
2022/03/18 10:25:06;;;;;;;13.35;6.28;;;;;;;11.14;51.29;103640.63;5018336;28;20173;-81
2022/03/18 10:27:33;;;;;;;12.27;5.88;;;;;;;11.13;52.33;103638.09;5018795;28;20061;-83
2022/03/18 10:30:00;;;;;;;10.75;5.75;;;;;;;11.28;49.71;103634.59;5018797;28;20133;-83
2022/03/18 10:32:28;;;;;;;12.43;5.75;;;;;;;11.29;50.65;103633.66;5019433;28;20084;-83
2022/03/18 10:37:42;;;;;;;13.40;5.70;;;;;;;11.32;51.01;103627.41;5019264;28;20069;-83
2022/03/18 10:40:11;;;;;;;12.35;5.70;;;;;;;11.70;50.67;103630.41;5018894;28;20496;-83
2022/03/18 10:42:38;;;;;;;10.10;5.93;;;;;;;11.75;50.55;103623.13;5019633;28;20240;-82
2022/03/18 10:45:06;;;;;;;9.98;5.57;;;;;;;11.62;48.99;103621.22;5018966;28;20449;-83
2022/03/18 10:47:35;;;;;;;8.90;4.95;;;;;;;11.72;47.74;103629.41;5020268;28;20057;-83
2022/03/18 10:50:21;;;;;;;9.88;4.35;;;;;;;11.56;45.55;103628.59;5021231;28;20050;-82
2022/03/18 10:53:11;;;;;;;8.95;4.75;;;;;;;11.83;46.18;103610.41;5021053;28;20107;-82
2022/03/18 10:55:41;;;;;;;8.15;4.60;;;;;;;11.82;45.75;103619.22;5024797;28;20129;-83
2022/03/18 10:58:11;;;;;;;8.07;4.47;;;;;;;12.02;46.06;103618.03;5023564;28;20104;-82
2022/03/18 11:00:38;;;;;;;9.52;4.53;;;;;;;12.17;44.67;103619.72;5023859;28;20493;-84
2022/03/18 11:03:06;;;;;;;7.38;4.22;;;;;;;12.48;45.42;103616.03;5022921;28;20131;-83
2022/03/18 11:05:34;;;;;;;8.60;4.32;;;;;;;12.70;43.59;103624.25;5022974;28;20050;-82
2022/03/18 11:08:01;;;;;;;8.90;3.90;;;;;;;12.33;43.60;103617.81;5026135;28;20133;-83
2022/03/18 11:13:16;;;;;;;6.35;4.15;;;;;;;12.58;42.13;103619.78;5026721;28;20053;-83
2022/03/18 11:15:45;;;;;;;5.57;3.53;;;;;;;12.40;41.53;103603.38;5026105;28;20054;-83
2022/03/18 11:18:13;;;;;;;5.70;3.60;;;;;;;12.55;40.34;103598.94;5024871;28;20060;-83
2022/03/18 11:20:44;;;;;;;9.27;3.90;;;;;;;12.76;40.12;103608.09;5024151;28;20054;-83
2022/03/18 11:23:20;;;;;;;7.88;3.50;;;;;;;13.03;40.95;103596.75;5020064;28;20046;-85
2022/03/18 11:25:50;;;;;;;6.50;3.50;;;;;;;13.00;39.94;103602.19;5019287;28;20069;-83
2022/03/18 11:28:20;;;;;;;6.88;3.50;;;;;;;12.85;39.81;103604.03;5018610;28;20306;-83
2022/03/18 11:30:49;;;;;;;8.90;3.63;;;;;;;13.07;40.26;103600.88;5018651;28;20045;-83
2022/03/18 11:33:21;;;;;;;7.15;3.15;;;;;;;13.13;39.72;103610.97;5018880;28;20049;-83
2022/03/18 11:36:15;;;;;;;4.78;2.88;;;;;;;13.14;38.80;103591.63;5018227;28;20052;-83
2022/03/18 11:39:02;;;;;;;4.43;2.53;;;;;;;12.96;36.55;103598.94;5018065;28;20061;-83
2022/03/18 11:41:47;;;;;;;5.70;2.95;;;;;;;13.12;38.03;103596.16;5024502;28;20064;-83
2022/03/18 11:44:43;;;;;;;5.07;3.17;;;;;;;12.97;38.55;103597.97;5022198;28;20050;-82
2022/03/18 11:47:44;;;;;;;5.30;2.83;;;;;;;13.25;37.12;103597.03;5019500;28;20084;-83
2022/03/18 11:50:50;;;;;;;6.78;2.97;;;;;;;13.49;37.50;103590.16;5019183;28;20421;-83
2022/03/18 11:53:51;;;;;;;7.07;3.50;;;;;;;13.71;37.67;103596.59;5021442;28;20061;-82
2022/03/18 11:56:22;;;;;;;5.20;3.30;;;;;;;13.25;35.58;103592.63;5028766;28;20045;-81
2022/03/18 11:58:49;;;;;;;8.05;3.45;;;;;;;13.42;36.69;103595.94;5025830;28;20109;-83
2022/03/18 12:01:44;;;;;;;6.35;3.67;;;;;;;13.29;36.86;103588.00;5026421;28;20542;-80
2022/03/18 12:04:40;;;;;;;5.40;3.17;;;;;;;13.17;36.79;103579.16;5027705;28;20054;-83
2022/03/18 12:07:12;;;;;;;7.47;3.90;;;;;;;13.05;37.42;103553.66;5028482;28;20054;-83